createdAt,value
2022-12-31T00:00:42.246Z,2.58
2022-12-31T00:01:45.189Z,2.64
2022-12-31T00:02:48.292Z,2.56
2022-12-31T00:03:51.381Z,2.63
2022-12-31T00:04:55.244Z,2.61
2022-12-31T00:05:58.342Z,2.65
2022-12-31T00:07:01.276Z,2.63
2022-12-31T00:08:04.700Z,2.76
2022-12-31T00:09:08.982Z,2.87
2022-12-31T00:10:12.135Z,2.89
2022-12-31T00:11:15.699Z,2.79
2022-12-31T00:12:18.748Z,2.78
2022-12-31T00:13:21.981Z,2.75
2022-12-31T00:14:25.033Z,2.90
2022-12-31T00:15:28.328Z,2.87
2022-12-31T00:16:36.750Z,2.81
2022-12-31T00:17:39.983Z,2.76
2022-12-31T00:18:50.844Z,2.68
2022-12-31T00:19:53.575Z,2.74
2022-12-31T00:20:56.477Z,2.70
2022-12-31T00:21:59.388Z,2.70
2022-12-31T00:23:02.348Z,2.69
2022-12-31T00:24:06.741Z,2.67
2022-12-31T00:25:10.307Z,2.65
2022-12-31T00:26:17.056Z,2.83
2022-12-31T00:27:19.939Z,2.80
2022-12-31T00:28:22.904Z,2.70
2022-12-31T00:29:25.919Z,2.79
2022-12-31T00:30:28.891Z,2.73
2022-12-31T00:31:37.716Z,2.78
2022-12-31T00:32:40.859Z,2.81
2022-12-31T00:33:44.824Z,2.92
2022-12-31T00:34:47.743Z,2.83
2022-12-31T00:35:50.622Z,2.89
2022-12-31T00:36:53.990Z,2.88
2022-12-31T00:37:57.189Z,2.83
2022-12-31T00:39:01.550Z,2.82
2022-12-31T00:40:05.428Z,2.89
2022-12-31T00:41:11.380Z,2.81
2022-12-31T00:42:14.251Z,2.74
2022-12-31T00:43:17.511Z,2.94
2022-12-31T00:44:20.568Z,3.07
2022-12-31T00:45:23.521Z,3.21
2022-12-31T00:46:26.852Z,3.00
2022-12-31T00:47:33.104Z,2.95
2022-12-31T00:48:40.140Z,2.95
2022-12-31T00:49:43.376Z,3.05
2022-12-31T00:50:46.605Z,3.03
2022-12-31T00:51:49.564Z,3.04
2022-12-31T00:52:52.404Z,3.00
2022-12-31T00:53:56.273Z,2.99
2022-12-31T00:54:59.471Z,2.97
2022-12-31T00:56:20.950Z,2.91
2022-12-31T00:57:24.140Z,3.00
2022-12-31T00:58:27.592Z,3.10
2022-12-31T00:59:30.511Z,3.39
2022-12-31T01:00:37.103Z,3.24
2022-12-31T01:01:41.252Z,3.12
2022-12-31T01:02:44.538Z,3.10
2022-12-31T01:03:49.057Z,3.11
2022-12-31T01:04:52.112Z,3.25
2022-12-31T01:05:59.580Z,3.22
2022-12-31T01:07:02.583Z,3.23
2022-12-31T01:09:16.501Z,3.24
2022-12-31T01:10:37.996Z,3.27
2022-12-31T01:11:41.442Z,3.27
2022-12-31T01:12:44.354Z,3.36
2022-12-31T01:14:08.111Z,3.36
2022-12-31T01:15:11.403Z,3.45
2022-12-31T01:16:15.122Z,3.51
2022-12-31T01:17:18.062Z,3.48
2022-12-31T01:18:21.378Z,3.45
2022-12-31T01:19:27.333Z,3.40
2022-12-31T01:20:31.023Z,3.41
2022-12-31T01:21:35.010Z,3.41
2022-12-31T01:22:38.058Z,3.39
2022-12-31T01:23:41.546Z,3.56
2022-12-31T01:24:44.739Z,3.51
2022-12-31T01:25:47.661Z,3.49
2022-12-31T01:26:51.663Z,3.49
2022-12-31T01:27:54.909Z,3.44
2022-12-31T01:28:58.427Z,3.37
2022-12-31T01:30:01.406Z,3.35
2022-12-31T01:31:10.778Z,3.31
2022-12-31T01:32:13.862Z,3.35
2022-12-31T01:33:16.787Z,3.26
2022-12-31T01:34:19.857Z,3.27
2022-12-31T01:35:22.782Z,3.13
2022-12-31T01:36:28.539Z,3.37
2022-12-31T01:37:31.457Z,3.58
2022-12-31T01:38:35.431Z,3.44
2022-12-31T01:39:38.589Z,3.46
2022-12-31T01:40:41.844Z,3.41
2022-12-31T01:41:47.907Z,3.39
2022-12-31T01:42:59.331Z,3.46
2022-12-31T01:44:25.390Z,3.37
2022-12-31T01:45:29.219Z,3.30
2022-12-31T01:46:39.956Z,3.29
2022-12-31T01:47:48.499Z,3.26
2022-12-31T01:48:55.820Z,3.26
2022-12-31T01:50:06.577Z,3.20
2022-12-31T01:51:10.988Z,3.13
2022-12-31T01:52:21.623Z,3.16
2022-12-31T01:53:24.909Z,3.34
2022-12-31T01:54:30.230Z,3.27
2022-12-31T01:55:46.819Z,3.23
2022-12-31T01:56:52.831Z,3.14
2022-12-31T01:58:11.577Z,3.25
2022-12-31T01:59:17.860Z,3.27
2022-12-31T02:00:20.834Z,3.15
2022-12-31T02:01:32.905Z,2.99
2022-12-31T02:02:36.405Z,3.01
2022-12-31T02:03:40.432Z,2.99
2022-12-31T02:04:43.701Z,2.94
2022-12-31T02:05:54.340Z,2.79
2022-12-31T02:07:01.416Z,2.73
2022-12-31T02:08:06.655Z,2.58
2022-12-31T02:09:11.017Z,2.58
2022-12-31T02:10:14.034Z,2.65
2022-12-31T02:11:36.837Z,2.61
2022-12-31T02:12:40.419Z,2.55
2022-12-31T02:13:43.457Z,2.46
2022-12-31T02:14:51.325Z,2.36
2022-12-31T02:16:00.238Z,2.52
2022-12-31T02:17:03.170Z,2.52
2022-12-31T02:18:38.301Z,2.56
2022-12-31T02:19:50.319Z,2.61
2022-12-31T02:21:25.298Z,2.52
2022-12-31T02:23:05.666Z,2.55
2022-12-31T02:24:29.790Z,2.44
2022-12-31T02:25:57.697Z,2.57
2022-12-31T02:27:06.447Z,2.61
2022-12-31T02:28:43.417Z,2.53
2022-12-31T02:30:23.322Z,2.31
2022-12-31T02:31:50.199Z,2.35
2022-12-31T02:33:02.889Z,2.31
2022-12-31T02:34:27.815Z,2.36
2022-12-31T02:35:34.200Z,2.32
2022-12-31T02:36:40.907Z,2.19
2022-12-31T02:37:46.771Z,2.14
2022-12-31T02:38:50.652Z,2.19
2022-12-31T02:39:54.685Z,2.20
2022-12-31T02:40:58.003Z,2.18
2022-12-31T02:42:02.082Z,2.19
2022-12-31T02:43:05.525Z,2.18
2022-12-31T02:44:30.222Z,2.16
2022-12-31T02:45:38.460Z,2.13
2022-12-31T02:46:49.468Z,2.09
2022-12-31T02:48:13.883Z,2.11
2022-12-31T02:49:24.294Z,2.02
2022-12-31T02:50:57.556Z,2.04
2022-12-31T02:52:06.218Z,2.08
2022-12-31T02:53:21.887Z,2.01
2022-12-31T02:54:37.196Z,2.09
2022-12-31T02:55:58.690Z,2.21
2022-12-31T02:57:28.425Z,2.19
2022-12-31T02:58:54.642Z,2.26
2022-12-31T03:00:28.479Z,2.12
2022-12-31T03:01:56.350Z,2.14
2022-12-31T03:03:01.377Z,2.10
2022-12-31T03:04:25.657Z,2.16
2022-12-31T03:05:32.433Z,2.00
2022-12-31T03:06:35.621Z,1.90
2022-12-31T03:07:40.910Z,1.92
2022-12-31T03:09:02.554Z,1.96
2022-12-31T03:10:05.918Z,2.01
2022-12-31T03:11:28.871Z,2.01
2022-12-31T03:12:50.126Z,1.98
2022-12-31T03:13:54.359Z,1.98
2022-12-31T03:14:57.442Z,1.99
2022-12-31T03:16:00.415Z,2.05
2022-12-31T03:17:05.342Z,2.11
2022-12-31T03:18:11.970Z,2.04
2022-12-31T03:19:33.940Z,2.11
2022-12-31T03:21:15.457Z,2.00
2022-12-31T03:22:30.460Z,1.96
2022-12-31T03:23:42.300Z,2.00
2022-12-31T03:25:03.850Z,2.09
2022-12-31T03:26:12.211Z,1.96
2022-12-31T03:27:15.498Z,1.97
2022-12-31T03:28:20.786Z,1.97
2022-12-31T03:29:23.793Z,1.92
2022-12-31T03:30:27.700Z,1.89
2022-12-31T03:31:30.655Z,1.84
2022-12-31T03:32:33.709Z,1.85
2022-12-31T03:33:39.982Z,1.92
2022-12-31T03:34:43.103Z,1.89
2022-12-31T03:35:51.136Z,1.85
2022-12-31T03:36:57.434Z,1.86
2022-12-31T03:38:01.511Z,1.92
2022-12-31T03:39:06.341Z,1.93
2022-12-31T03:40:12.303Z,1.91
2022-12-31T03:41:15.384Z,1.93
2022-12-31T03:42:18.465Z,1.92
2022-12-31T03:43:21.511Z,1.92
2022-12-31T03:44:24.529Z,1.91
2022-12-31T03:45:27.651Z,1.92
2022-12-31T03:46:30.722Z,1.92
2022-12-31T03:47:33.689Z,1.97
2022-12-31T03:48:38.362Z,2.05
2022-12-31T03:49:41.349Z,2.01
2022-12-31T03:50:44.916Z,2.02
2022-12-31T03:51:47.849Z,2.10
2022-12-31T03:52:50.729Z,2.12
2022-12-31T03:53:53.670Z,2.13
2022-12-31T03:54:56.577Z,2.09
2022-12-31T03:55:59.457Z,2.15
2022-12-31T03:57:02.744Z,2.17
2022-12-31T03:58:05.941Z,2.11
2022-12-31T03:59:08.976Z,2.02
2022-12-31T04:00:18.746Z,2.03
2022-12-31T04:01:25.734Z,1.98
2022-12-31T04:02:29.702Z,2.14
2022-12-31T04:03:32.709Z,2.08
2022-12-31T04:04:35.456Z,2.09
2022-12-31T04:05:38.390Z,2.08
2022-12-31T04:06:41.200Z,2.07
2022-12-31T04:07:44.330Z,2.11
2022-12-31T04:08:51.191Z,2.14
2022-12-31T04:09:55.801Z,2.11
2022-12-31T04:10:58.996Z,1.94
2022-12-31T04:12:02.870Z,1.93
2022-12-31T04:13:05.880Z,1.97
2022-12-31T04:14:08.970Z,2.01
2022-12-31T04:15:17.580Z,2.01
2022-12-31T04:16:20.857Z,2.08
2022-12-31T04:17:24.276Z,2.08
2022-12-31T04:18:29.081Z,2.07
2022-12-31T04:19:32.112Z,1.92
2022-12-31T04:20:35.015Z,1.92
2022-12-31T04:21:38.125Z,1.90
2022-12-31T04:22:41.341Z,1.91
2022-12-31T04:23:44.267Z,1.91
2022-12-31T04:24:47.381Z,1.85
2022-12-31T04:25:50.448Z,1.66
2022-12-31T04:26:53.347Z,1.69
2022-12-31T04:27:56.744Z,1.74
2022-12-31T04:29:03.401Z,1.80
2022-12-31T04:30:07.406Z,1.91
2022-12-31T04:31:11.449Z,1.92
2022-12-31T04:32:14.441Z,1.92
2022-12-31T04:33:17.407Z,2.00
2022-12-31T04:34:20.622Z,1.93
2022-12-31T04:35:23.579Z,1.90
2022-12-31T04:36:27.218Z,1.88
2022-12-31T04:37:30.371Z,1.87
2022-12-31T04:38:34.794Z,1.85
2022-12-31T04:39:38.441Z,1.84
2022-12-31T04:41:01.368Z,1.85
2022-12-31T04:42:04.476Z,1.81
2022-12-31T04:43:07.629Z,1.76
2022-12-31T04:44:10.543Z,1.77
2022-12-31T04:45:13.420Z,1.72
2022-12-31T04:46:18.333Z,1.81
2022-12-31T04:47:23.811Z,1.78
2022-12-31T04:48:27.089Z,1.76
2022-12-31T04:49:30.163Z,1.73
2022-12-31T04:50:36.430Z,1.70
2022-12-31T04:51:39.808Z,1.73
2022-12-31T04:52:43.172Z,1.68
2022-12-31T04:53:46.467Z,1.68
2022-12-31T04:54:49.553Z,1.66
2022-12-31T04:55:52.955Z,1.69
2022-12-31T04:56:55.931Z,1.72
2022-12-31T04:57:58.981Z,1.77
2022-12-31T04:59:02.086Z,1.69
2022-12-31T05:00:05.365Z,1.73
2022-12-31T05:01:09.079Z,1.67
2022-12-31T05:02:12.894Z,1.73
2022-12-31T05:03:17.559Z,1.73
2022-12-31T05:04:20.573Z,1.58
2022-12-31T05:05:23.863Z,1.55
2022-12-31T05:06:27.412Z,1.62
2022-12-31T05:07:30.581Z,1.81
2022-12-31T05:08:34.391Z,1.76
2022-12-31T05:09:38.799Z,1.61
2022-12-31T05:10:43.816Z,1.52
2022-12-31T05:11:46.821Z,1.44
2022-12-31T05:12:49.804Z,1.20
2022-12-31T05:13:52.726Z,1.21
2022-12-31T05:14:55.739Z,1.42
2022-12-31T05:15:58.889Z,1.49
2022-12-31T05:17:05.405Z,1.49
2022-12-31T05:18:09.579Z,1.52
2022-12-31T05:19:12.541Z,1.56
2022-12-31T05:20:15.662Z,1.59
2022-12-31T05:21:21.490Z,1.48
2022-12-31T05:22:30.546Z,1.49
2022-12-31T05:23:33.501Z,1.47
2022-12-31T05:24:36.470Z,1.50
2022-12-31T05:25:39.502Z,1.59
2022-12-31T05:26:42.492Z,1.53
2022-12-31T05:27:45.558Z,1.44
2022-12-31T05:28:48.459Z,1.44
2022-12-31T05:29:51.537Z,1.43
2022-12-31T05:30:54.699Z,1.51
2022-12-31T05:31:57.904Z,1.38
2022-12-31T05:33:01.069Z,1.46
2022-12-31T05:34:03.986Z,1.56
2022-12-31T05:35:07.867Z,1.70
2022-12-31T05:36:10.960Z,1.73
2022-12-31T05:37:13.937Z,1.74
2022-12-31T05:38:17.263Z,1.75
2022-12-31T05:39:20.224Z,1.78
2022-12-31T05:40:23.274Z,1.88
2022-12-31T05:41:26.348Z,1.84
2022-12-31T05:42:29.188Z,1.87
2022-12-31T05:43:32.694Z,1.92
2022-12-31T05:44:35.601Z,1.93
2022-12-31T05:45:38.682Z,2.00
2022-12-31T05:46:41.831Z,1.85
2022-12-31T05:47:45.357Z,1.85
2022-12-31T05:48:48.475Z,1.85
2022-12-31T05:49:51.870Z,1.95
2022-12-31T05:50:55.358Z,1.97
2022-12-31T05:51:58.451Z,1.86
2022-12-31T05:53:01.564Z,1.77
2022-12-31T05:54:04.957Z,1.86
2022-12-31T05:55:08.414Z,2.04
2022-12-31T05:56:11.427Z,2.17
2022-12-31T05:57:14.454Z,2.25
2022-12-31T05:58:17.429Z,2.26
2022-12-31T05:59:20.775Z,2.25
2022-12-31T06:00:23.849Z,2.26
2022-12-31T06:01:26.943Z,2.33
2022-12-31T06:02:29.918Z,2.38
2022-12-31T06:03:33.375Z,2.35
2022-12-31T06:04:36.260Z,2.29
2022-12-31T06:05:45.109Z,2.30
2022-12-31T06:06:48.102Z,2.23
2022-12-31T06:07:51.141Z,2.22
2022-12-31T06:08:58.219Z,2.24
2022-12-31T06:10:01.421Z,2.26
2022-12-31T06:11:04.457Z,2.40
2022-12-31T06:12:08.044Z,2.44
2022-12-31T06:13:11.151Z,2.46
2022-12-31T06:14:14.501Z,2.43
2022-12-31T06:15:17.520Z,2.58
2022-12-31T06:16:20.625Z,2.64
2022-12-31T06:17:23.739Z,2.54
2022-12-31T06:18:26.865Z,2.49
2022-12-31T06:19:30.187Z,2.44
2022-12-31T06:20:33.274Z,2.47
2022-12-31T06:21:36.422Z,2.53
2022-12-31T06:22:39.411Z,2.53
2022-12-31T06:23:42.358Z,2.48
2022-12-31T06:24:45.745Z,2.52
2022-12-31T06:25:48.866Z,2.62
2022-12-31T06:26:51.867Z,2.65
2022-12-31T06:27:54.829Z,2.78
2022-12-31T06:28:58.139Z,2.94
2022-12-31T06:30:01.042Z,2.85
2022-12-31T06:31:06.590Z,2.77
2022-12-31T06:32:12.740Z,2.72
2022-12-31T06:33:15.892Z,2.67
2022-12-31T06:34:19.042Z,2.62
2022-12-31T06:35:22.300Z,2.68
2022-12-31T06:36:27.128Z,2.71
2022-12-31T06:37:30.403Z,2.86
2022-12-31T06:38:35.485Z,2.91
2022-12-31T06:39:38.665Z,2.91
2022-12-31T06:40:41.830Z,2.95
2022-12-31T06:41:44.880Z,2.93
2022-12-31T06:42:47.971Z,2.90
2022-12-31T06:43:51.109Z,2.91
2022-12-31T06:44:54.138Z,2.82
2022-12-31T06:46:01.069Z,2.84
2022-12-31T06:47:04.185Z,2.92
2022-12-31T06:48:08.157Z,2.92
2022-12-31T06:49:11.116Z,3.02
2022-12-31T06:50:14.229Z,2.99
2022-12-31T06:51:20.105Z,3.00
2022-12-31T06:52:23.304Z,2.98
2022-12-31T06:53:29.291Z,3.04
2022-12-31T06:54:32.419Z,2.90
2022-12-31T06:55:36.024Z,2.95
2022-12-31T06:56:39.302Z,2.98
2022-12-31T06:57:42.489Z,3.05
2022-12-31T06:58:46.474Z,3.13
2022-12-31T06:59:49.835Z,2.93
2022-12-31T07:01:15.217Z,2.99
2022-12-31T07:02:44.638Z,3.02
2022-12-31T07:04:27.225Z,3.00
2022-12-31T07:05:39.620Z,3.02
2022-12-31T07:07:08.502Z,3.14
2022-12-31T07:08:29.342Z,2.92
2022-12-31T07:09:46.670Z,2.96
2022-12-31T07:11:02.973Z,2.95
2022-12-31T07:12:20.938Z,2.99
2022-12-31T07:13:32.658Z,3.02
2022-12-31T07:14:48.945Z,3.02
2022-12-31T07:16:10.857Z,3.05
2022-12-31T07:17:28.817Z,3.18
2022-12-31T07:18:51.426Z,3.12
2022-12-31T07:20:03.100Z,3.17
2022-12-31T07:21:13.142Z,3.23
2022-12-31T07:22:17.623Z,3.14
2022-12-31T07:23:21.510Z,3.07
2022-12-31T07:24:24.779Z,3.11
2022-12-31T07:25:28.221Z,3.19
2022-12-31T07:27:06.346Z,3.37
2022-12-31T07:28:15.586Z,3.39
2022-12-31T07:29:53.620Z,3.30
2022-12-31T07:31:12.388Z,3.36
2022-12-31T07:32:34.300Z,3.42
2022-12-31T07:34:00.345Z,3.46
2022-12-31T07:35:35.018Z,3.47
2022-12-31T07:37:07.701Z,3.59
2022-12-31T07:38:38.525Z,3.64
2022-12-31T07:40:02.204Z,3.65
2022-12-31T07:41:23.572Z,3.62
2022-12-31T07:42:57.867Z,3.52
2022-12-31T07:44:13.168Z,3.59
2022-12-31T07:45:34.017Z,3.70
2022-12-31T07:46:36.947Z,3.82
2022-12-31T07:47:39.923Z,3.85
2022-12-31T07:48:43.362Z,3.75
2022-12-31T07:49:46.627Z,3.63
2022-12-31T07:50:50.903Z,3.68
2022-12-31T07:51:54.587Z,3.84
2022-12-31T07:52:58.639Z,3.83
2022-12-31T07:54:01.657Z,3.87
2022-12-31T07:55:04.991Z,3.91
2022-12-31T07:56:09.344Z,3.99
2022-12-31T07:57:13.661Z,4.12
2022-12-31T07:58:25.993Z,4.05
2022-12-31T08:00:03.373Z,4.01
2022-12-31T08:01:11.846Z,3.94
2022-12-31T08:02:37.018Z,4.05
2022-12-31T08:04:00.473Z,4.24
2022-12-31T08:05:14.113Z,4.30
2022-12-31T08:06:34.285Z,4.40
2022-12-31T08:07:51.980Z,4.43
2022-12-31T08:08:57.805Z,4.51
2022-12-31T08:10:06.496Z,4.65
2022-12-31T08:11:15.805Z,4.66
2022-12-31T08:12:19.945Z,4.57
2022-12-31T08:13:22.840Z,4.32
2022-12-31T08:14:27.148Z,4.10
2022-12-31T08:15:30.940Z,4.26
2022-12-31T08:16:37.513Z,4.41
2022-12-31T08:17:41.815Z,4.23
2022-12-31T08:18:45.132Z,4.23
2022-12-31T08:19:48.955Z,4.12
2022-12-31T08:21:05.052Z,4.09
2022-12-31T08:22:29.215Z,4.23
2022-12-31T08:23:54.969Z,4.06
2022-12-31T08:25:03.897Z,4.11
2022-12-31T08:26:14.968Z,3.93
2022-12-31T08:28:00.711Z,3.91
2022-12-31T08:29:40.535Z,4.01
2022-12-31T08:31:10.101Z,4.05
2022-12-31T08:32:45.343Z,4.25
2022-12-31T08:34:07.753Z,4.14
2022-12-31T08:35:35.493Z,3.91
2022-12-31T08:36:45.736Z,4.01
2022-12-31T08:37:58.571Z,3.98
2022-12-31T08:39:07.819Z,4.01
2022-12-31T08:40:22.665Z,4.01
2022-12-31T08:41:48.278Z,3.97
2022-12-31T08:43:20.139Z,4.10
2022-12-31T08:44:36.789Z,4.12
2022-12-31T08:45:46.819Z,4.27
2022-12-31T08:47:00.892Z,4.21
2022-12-31T08:48:21.582Z,4.34
2022-12-31T08:49:28.010Z,4.42
2022-12-31T08:50:31.662Z,4.47
2022-12-31T08:51:35.178Z,4.53
2022-12-31T08:52:38.624Z,4.59
2022-12-31T08:53:42.041Z,4.70
2022-12-31T08:54:45.317Z,4.81
2022-12-31T08:55:53.806Z,4.93
2022-12-31T08:57:21.557Z,4.94
2022-12-31T08:58:57.298Z,4.99
2022-12-31T09:00:11.738Z,5.00
2022-12-31T09:01:21.864Z,5.11
2022-12-31T09:02:48.477Z,5.26
2022-12-31T09:04:05.252Z,5.37
2022-12-31T09:05:23.640Z,5.39
2022-12-31T09:06:34.416Z,5.30
2022-12-31T09:07:41.959Z,5.27
2022-12-31T09:08:54.134Z,5.19
2022-12-31T09:10:06.272Z,5.28
2022-12-31T09:11:23.898Z,5.32
2022-12-31T09:12:43.166Z,5.27
2022-12-31T09:14:08.037Z,5.47
2022-12-31T09:15:23.300Z,5.39
2022-12-31T09:16:41.333Z,5.33
2022-12-31T09:17:52.444Z,5.38
2022-12-31T09:18:55.819Z,5.34
2022-12-31T09:19:59.278Z,5.46
2022-12-31T09:21:02.452Z,5.41
2022-12-31T09:22:05.608Z,5.40
2022-12-31T09:23:08.879Z,5.37
2022-12-31T09:24:16.093Z,5.37
2022-12-31T09:25:21.743Z,5.40
2022-12-31T09:26:31.108Z,5.40
2022-12-31T09:27:42.760Z,5.40
2022-12-31T09:29:14.876Z,5.45
2022-12-31T09:30:19.036Z,5.57
2022-12-31T09:31:49.985Z,5.66
2022-12-31T09:33:21.572Z,5.64
2022-12-31T09:34:33.658Z,5.54
2022-12-31T09:35:57.420Z,5.54
2022-12-31T09:37:07.073Z,5.61
2022-12-31T09:38:23.067Z,5.68
2022-12-31T09:39:41.372Z,5.79
2022-12-31T09:41:06.674Z,5.91
2022-12-31T09:42:15.338Z,5.94
2022-12-31T09:43:45.424Z,6.03
2022-12-31T09:45:18.879Z,6.25
2022-12-31T09:46:53.677Z,6.51
2022-12-31T09:48:15.120Z,6.64
2022-12-31T09:50:03.232Z,6.75
2022-12-31T09:51:25.575Z,6.96
2022-12-31T09:52:43.310Z,7.03
2022-12-31T09:54:05.023Z,7.16
2022-12-31T09:55:08.020Z,7.25
2022-12-31T09:56:13.240Z,7.38
2022-12-31T09:57:18.936Z,7.45
2022-12-31T09:58:21.892Z,7.58
2022-12-31T09:59:43.002Z,7.58
2022-12-31T10:00:57.073Z,7.64
2022-12-31T10:02:16.360Z,7.71
2022-12-31T10:03:28.449Z,7.70
2022-12-31T10:04:55.536Z,7.69
2022-12-31T10:06:21.322Z,7.71
2022-12-31T10:07:50.420Z,7.67
2022-12-31T10:09:02.544Z,7.72
2022-12-31T10:10:26.599Z,7.81
2022-12-31T10:11:29.638Z,7.84
2022-12-31T10:12:51.254Z,7.74
2022-12-31T10:14:33.419Z,7.76
2022-12-31T10:15:54.922Z,7.76
2022-12-31T10:17:23.365Z,7.80
2022-12-31T10:18:35.861Z,7.75
2022-12-31T10:19:56.801Z,7.83
2022-12-31T10:21:18.415Z,7.86
2022-12-31T10:22:44.219Z,7.81
2022-12-31T10:24:19.143Z,7.93
2022-12-31T10:25:55.419Z,7.85
2022-12-31T10:27:50.349Z,7.85
2022-12-31T10:29:26.944Z,7.74
2022-12-31T10:30:35.139Z,7.58
2022-12-31T10:31:56.768Z,7.80
2022-12-31T10:33:09.331Z,7.85
2022-12-31T10:34:39.068Z,7.52
2022-12-31T10:35:59.724Z,7.60
2022-12-31T10:37:15.503Z,7.48
2022-12-31T10:38:24.888Z,7.15
2022-12-31T10:39:41.502Z,7.28
2022-12-31T10:41:08.702Z,7.21
2022-12-31T10:42:52.953Z,7.22
2022-12-31T10:43:56.112Z,7.25
2022-12-31T10:45:17.281Z,7.34
2022-12-31T10:46:38.443Z,7.34
2022-12-31T10:48:18.980Z,7.29
2022-12-31T10:49:49.581Z,7.23
2022-12-31T10:50:55.511Z,7.48
2022-12-31T10:52:16.705Z,7.45
2022-12-31T10:53:37.926Z,7.47
2022-12-31T10:54:56.037Z,7.50
2022-12-31T10:56:09.844Z,7.55
2022-12-31T10:57:55.374Z,7.48
2022-12-31T10:59:38.289Z,7.55
2022-12-31T11:01:13.802Z,7.49
2022-12-31T11:03:01.639Z,7.55
2022-12-31T11:04:29.976Z,7.50
2022-12-31T11:05:57.284Z,7.45
2022-12-31T11:07:30.051Z,7.58
2022-12-31T11:08:48.217Z,7.53
2022-12-31T11:10:09.472Z,7.53
2022-12-31T11:11:29.029Z,7.47
2022-12-31T11:12:40.613Z,7.43
2022-12-31T11:14:02.311Z,7.54
2022-12-31T11:15:38.060Z,7.45
2022-12-31T11:17:01.730Z,7.44
2022-12-31T11:18:18.578Z,7.46
2022-12-31T11:19:34.032Z,7.50
2022-12-31T11:20:47.826Z,7.59
2022-12-31T11:22:21.126Z,7.70
2022-12-31T11:23:48.962Z,7.69
2022-12-31T11:25:13.258Z,7.71
2022-12-31T11:26:34.525Z,7.72
2022-12-31T11:28:18.947Z,7.72
2022-12-31T11:29:38.500Z,7.74
2022-12-31T11:31:00.342Z,7.76
2022-12-31T11:32:11.325Z,7.79
2022-12-31T11:33:43.029Z,7.81
2022-12-31T11:35:09.026Z,7.88
2022-12-31T11:36:15.816Z,7.83
2022-12-31T11:37:31.647Z,7.98
2022-12-31T11:38:41.078Z,7.91
2022-12-31T11:40:09.776Z,7.89
2022-12-31T11:41:28.845Z,7.94
2022-12-31T11:43:00.708Z,7.90
2022-12-31T11:44:12.509Z,7.97
2022-12-31T11:45:22.382Z,8.20
2022-12-31T11:46:25.310Z,8.20
2022-12-31T11:48:29.250Z,8.20
2022-12-31T11:49:21.863Z,8.26
2022-12-31T11:51:06.838Z,8.41
2022-12-31T11:52:22.050Z,8.35
2022-12-31T11:53:57.694Z,8.31
2022-12-31T11:55:19.960Z,8.43
2022-12-31T11:56:26.409Z,8.80
2022-12-31T11:57:38.386Z,8.71
2022-12-31T11:58:50.157Z,8.75
2022-12-31T12:00:26.735Z,8.80
2022-12-31T12:01:49.480Z,8.80
2022-12-31T12:02:57.044Z,8.86
2022-12-31T12:04:00.676Z,8.84
2022-12-31T12:05:11.070Z,8.92
2022-12-31T12:06:15.944Z,8.95
2022-12-31T12:07:19.704Z,8.95
2022-12-31T12:08:23.513Z,9.08
2022-12-31T12:09:29.528Z,9.03
2022-12-31T12:10:46.747Z,9.09
2022-12-31T12:11:59.958Z,9.28
2022-12-31T12:13:26.384Z,9.16
2022-12-31T12:14:34.151Z,9.25
2022-12-31T12:15:37.081Z,9.35
2022-12-31T12:16:40.474Z,9.36
2022-12-31T12:17:43.846Z,9.52
2022-12-31T12:18:51.300Z,9.48
2022-12-31T12:19:56.892Z,9.51
2022-12-31T12:21:12.959Z,9.61
2022-12-31T12:22:25.409Z,9.56
2022-12-31T12:23:28.948Z,9.72
2022-12-31T12:24:31.704Z,9.95
2022-12-31T12:25:40.836Z,10.38
2022-12-31T12:26:45.679Z,11.06
2022-12-31T12:27:49.037Z,11.47
2022-12-31T12:28:52.298Z,11.55
2022-12-31T12:29:58.572Z,11.98
2022-12-31T12:31:04.562Z,12.13
2022-12-31T12:32:16.424Z,12.34
2022-12-31T12:33:21.072Z,12.51
2022-12-31T12:34:31.534Z,12.68
2022-12-31T12:35:36.377Z,12.59
2022-12-31T12:36:47.224Z,12.74
2022-12-31T12:37:58.469Z,12.59
2022-12-31T12:39:25.370Z,12.41
2022-12-31T12:40:33.662Z,12.38
2022-12-31T12:41:40.581Z,11.71
2022-12-31T12:42:48.705Z,11.36
2022-12-31T12:44:06.425Z,11.31
2022-12-31T12:45:21.052Z,10.99
2022-12-31T12:46:33.096Z,11.11
2022-12-31T12:47:36.554Z,10.67
2022-12-31T12:48:42.661Z,10.65
2022-12-31T12:49:49.202Z,10.74
2022-12-31T12:50:52.427Z,10.98
2022-12-31T12:52:30.659Z,10.97
2022-12-31T12:53:58.250Z,11.03
2022-12-31T12:55:26.597Z,10.62
2022-12-31T12:56:47.544Z,10.79
2022-12-31T12:57:56.090Z,10.60
2022-12-31T12:59:08.073Z,10.57
2022-12-31T13:00:17.808Z,10.47
2022-12-31T13:01:54.219Z,10.56
2022-12-31T13:03:25.254Z,10.31
2022-12-31T13:04:56.815Z,10.13
2022-12-31T13:06:23.989Z,10.12
2022-12-31T13:07:55.682Z,10.01
2022-12-31T13:09:33.720Z,9.93
2022-12-31T13:11:03.813Z,9.87
2022-12-31T13:12:27.438Z,10.10
2022-12-31T13:14:00.755Z,9.74
2022-12-31T13:15:28.386Z,9.62
2022-12-31T13:16:45.402Z,10.01
2022-12-31T13:18:04.543Z,9.76
2022-12-31T13:19:35.480Z,9.82
2022-12-31T13:20:49.307Z,9.65
2022-12-31T13:22:01.631Z,9.45
2022-12-31T13:23:11.463Z,9.48
2022-12-31T13:24:47.381Z,9.58
2022-12-31T13:25:53.606Z,9.56
2022-12-31T13:27:14.255Z,9.46
2022-12-31T13:28:19.617Z,9.48
2022-12-31T13:29:26.610Z,9.53
2022-12-31T13:30:43.524Z,9.52
2022-12-31T13:31:49.518Z,9.53
2022-12-31T13:33:24.530Z,9.53
2022-12-31T13:34:34.337Z,9.47
2022-12-31T13:35:51.056Z,9.45
2022-12-31T13:36:56.829Z,9.49
2022-12-31T13:38:10.320Z,9.47
2022-12-31T13:39:25.205Z,9.36
2022-12-31T13:40:36.044Z,9.44
2022-12-31T13:41:59.092Z,9.57
2022-12-31T13:43:18.914Z,9.43
2022-12-31T13:44:26.939Z,9.38
2022-12-31T13:45:42.439Z,9.41
2022-12-31T13:47:01.977Z,9.51
2022-12-31T13:48:15.535Z,9.50
2022-12-31T13:49:40.548Z,9.29
2022-12-31T13:50:52.207Z,9.25
2022-12-31T13:52:40.402Z,9.30
2022-12-31T13:53:58.218Z,9.17
2022-12-31T13:55:10.263Z,9.24
2022-12-31T13:56:19.712Z,9.40
2022-12-31T13:57:32.002Z,9.34
2022-12-31T13:58:44.291Z,9.34
2022-12-31T13:59:55.295Z,9.40
2022-12-31T14:01:01.260Z,9.37
2022-12-31T14:02:32.306Z,9.30
2022-12-31T14:03:38.230Z,9.23
2022-12-31T14:04:50.106Z,9.19
2022-12-31T14:06:05.604Z,9.12
2022-12-31T14:07:37.591Z,9.16
2022-12-31T14:08:45.696Z,9.08
2022-12-31T14:09:49.109Z,9.11
2022-12-31T14:10:58.041Z,9.19
2022-12-31T14:12:23.213Z,9.26
2022-12-31T14:13:58.401Z,9.37
2022-12-31T14:15:07.456Z,9.41
2022-12-31T14:16:35.135Z,9.32
2022-12-31T14:18:07.512Z,9.31
2022-12-31T14:19:41.030Z,9.26
2022-12-31T14:20:47.068Z,9.34
2022-12-31T14:22:01.559Z,9.41
2022-12-31T14:23:51.846Z,9.43
2022-12-31T14:24:56.988Z,9.38
2022-12-31T14:26:27.943Z,9.27
2022-12-31T14:27:41.763Z,9.33
2022-12-31T14:29:22.039Z,9.38
2022-12-31T14:30:34.394Z,9.52
2022-12-31T14:31:43.372Z,9.67
2022-12-31T14:33:04.818Z,9.69
2022-12-31T14:34:47.746Z,9.96
2022-12-31T14:36:10.890Z,10.19
2022-12-31T14:37:38.526Z,10.17
2022-12-31T14:39:08.190Z,10.26
2022-12-31T14:40:34.763Z,10.16
2022-12-31T14:42:14.599Z,9.98
2022-12-31T14:43:26.353Z,9.88
2022-12-31T14:44:29.289Z,9.80
2022-12-31T14:45:48.399Z,9.65
2022-12-31T14:47:20.334Z,9.59
2022-12-31T14:48:44.730Z,9.50
2022-12-31T14:50:09.667Z,9.44
2022-12-31T14:51:17.743Z,9.43
2022-12-31T14:52:24.248Z,9.31
2022-12-31T14:53:29.193Z,9.27
2022-12-31T14:54:37.887Z,9.23
2022-12-31T14:55:41.376Z,9.31
2022-12-31T14:56:45.517Z,9.24
2022-12-31T14:59:52.236Z,9.13
2022-12-31T15:01:02.327Z,9.23
2022-12-31T15:02:33.123Z,9.01
2022-12-31T15:03:45.524Z,9.02
2022-12-31T15:04:48.973Z,8.99
2022-12-31T15:06:04.198Z,8.98
2022-12-31T15:07:17.040Z,9.00
2022-12-31T15:08:26.804Z,8.93
2022-12-31T15:09:35.499Z,8.85
2022-12-31T15:11:05.756Z,9.03
2022-12-31T15:12:21.405Z,9.06
2022-12-31T15:13:49.131Z,8.95
2022-12-31T15:15:16.864Z,8.90
2022-12-31T15:16:50.347Z,8.92
2022-12-31T15:18:11.724Z,9.13
2022-12-31T15:19:46.210Z,9.08
2022-12-31T15:21:38.780Z,9.03
2022-12-31T15:22:46.145Z,8.91
2022-12-31T15:23:50.129Z,9.11
2022-12-31T15:24:53.206Z,9.00
2022-12-31T15:26:01.876Z,9.01
2022-12-31T15:27:07.021Z,8.97
2022-12-31T15:28:28.530Z,8.93
2022-12-31T15:29:34.649Z,8.93
2022-12-31T15:30:46.102Z,8.93
2022-12-31T15:31:49.233Z,8.92
2022-12-31T15:32:52.506Z,8.92
2022-12-31T15:33:59.442Z,8.94
2022-12-31T15:35:21.659Z,8.94
2022-12-31T15:36:27.789Z,9.02
2022-12-31T15:37:37.253Z,9.06
2022-12-31T15:38:42.152Z,9.03
2022-12-31T15:39:45.278Z,8.96
2022-12-31T15:40:51.754Z,8.95
2022-12-31T15:43:40.643Z,9.18
2022-12-31T15:44:46.438Z,9.05
2022-12-31T15:45:52.442Z,9.06
2022-12-31T15:47:04.898Z,9.16
2022-12-31T15:48:36.521Z,9.08
2022-12-31T15:49:43.403Z,9.18
2022-12-31T15:50:47.303Z,9.15
2022-12-31T15:52:13.029Z,9.16
2022-12-31T15:53:40.177Z,9.23
2022-12-31T15:54:46.223Z,9.23
2022-12-31T15:55:53.320Z,9.17
2022-12-31T15:56:56.628Z,9.14
2022-12-31T15:58:05.484Z,9.18
2022-12-31T15:59:14.932Z,9.22
2022-12-31T16:00:22.066Z,9.31
2022-12-31T16:01:30.992Z,9.32